createdAt,value
2022-11-26T00:03:13.508Z,3.2
2022-11-26T00:08:35.459Z,2.6
2022-11-26T00:14:32.733Z,3
2022-11-26T00:19:42.037Z,3.6
2022-11-26T00:25:22.053Z,3.4
2022-11-26T00:31:00.735Z,3.2
2022-11-26T00:36:30.468Z,3.4
2022-11-26T00:41:48.529Z,3.5
2022-11-26T00:47:19.542Z,3.5
2022-11-26T00:53:06.219Z,3.1
2022-11-26T00:58:30.438Z,3
2022-11-26T01:03:53.779Z,2.7
2022-11-26T01:09:37.687Z,2.9
2022-11-26T01:15:12.156Z,3.1
2022-11-26T01:20:44.873Z,3.1
2022-11-26T01:26:06.351Z,3
2022-11-26T01:31:35.422Z,3.1
2022-11-26T01:37:10.094Z,2.5
2022-11-26T01:42:39.201Z,3
2022-11-26T01:53:42.543Z,2.8
2022-11-26T01:59:19.379Z,2.9
2022-11-26T02:04:55.906Z,2.8
2022-11-26T02:10:37.816Z,2.8
2022-11-26T02:16:09.644Z,2.9
2022-11-26T02:21:41.433Z,3
2022-11-26T02:26:47.813Z,2.8
2022-11-26T02:32:43.933Z,3
2022-11-26T02:38:06.524Z,3.2
2022-11-26T02:43:26.821Z,2.9
2022-11-26T02:49:06.242Z,2.7
2022-11-26T02:54:47.251Z,3
2022-11-26T03:00:05.063Z,2.9
2022-11-26T03:05:33.337Z,2.9
2022-11-26T03:11:19.940Z,2.8
2022-11-26T03:16:50.065Z,2.9
2022-11-26T03:22:15.544Z,2.7
2022-11-26T03:27:46.795Z,2.4
2022-11-26T03:33:14.334Z,2.6
2022-11-26T03:38:59.689Z,3
2022-11-26T03:44:38.829Z,2.6
2022-11-26T03:50:07.612Z,2.2
2022-11-26T03:55:33.967Z,2.5
2022-11-26T04:00:49.531Z,2.5
2022-11-26T04:06:34.834Z,2.7
2022-11-26T04:12:14.527Z,2
2022-11-26T04:17:40.976Z,2.2
2022-11-26T04:23:11.566Z,2
2022-11-26T04:28:42.993Z,2
2022-11-26T04:34:09.505Z,2.9
2022-11-26T04:39:48.880Z,2.6
2022-11-26T04:45:05.598Z,2.6
2022-11-26T04:50:43.965Z,2.4
2022-11-26T04:56:22.076Z,2.2
2022-11-26T05:02:02.787Z,1.9
2022-11-26T05:07:23.676Z,1.7
2022-11-26T05:12:50.957Z,2
2022-11-26T05:18:26.611Z,1.8
2022-11-26T05:24:08.484Z,1.6
2022-11-26T05:29:18.686Z,1.5
2022-11-26T05:34:59.986Z,1.6
2022-11-26T05:40:30.953Z,1.5
2022-11-26T05:46:20.121Z,1.5
2022-11-26T05:51:33.448Z,2
2022-11-26T05:57:20.170Z,2.1
2022-11-26T06:02:36.490Z,2
2022-11-26T06:08:13.028Z,1.3
2022-11-26T06:13:55.471Z,0.9
2022-11-26T06:19:01.534Z,0.8
2022-11-26T06:24:55.917Z,0.6
2022-11-26T06:30:07.419Z,0.6
2022-11-26T06:35:41.163Z,0.3
2022-11-26T06:41:20.259Z,0.4
2022-11-26T06:46:39.694Z,0.6
2022-11-26T06:52:36.406Z,0.8
2022-11-26T06:58:00.181Z,0.8
2022-11-26T07:03:23.592Z,0.9
2022-11-26T07:08:53.601Z,1
2022-11-26T07:14:42.940Z,0.9
2022-11-26T07:20:02.925Z,0.6
2022-11-26T07:25:21.201Z,1
2022-11-26T07:30:59.504Z,1.5
2022-11-26T07:36:32.493Z,1.8
2022-11-26T07:42:22.291Z,1.5
2022-11-26T07:47:54.766Z,1.5
2022-11-26T07:53:08.675Z,1.5
2022-11-26T07:58:56.790Z,1.5
2022-11-26T08:04:32.350Z,1.5
2022-11-26T08:09:38.861Z,1.6
2022-11-26T08:15:33.453Z,1.7
2022-11-26T08:20:46.545Z,1.7
2022-11-26T08:26:33.823Z,1.7
2022-11-26T08:31:55.097Z,1.6
2022-11-26T08:37:30.489Z,1.8
2022-11-26T08:43:08.014Z,1.9
2022-11-26T08:48:33.306Z,2
2022-11-26T08:54:02.676Z,2.1
2022-11-26T08:59:36.581Z,2.7
2022-11-26T09:05:14.434Z,2.6
2022-11-26T09:10:31.413Z,2.8
2022-11-26T09:16:09.635Z,2.7
2022-11-26T09:21:55.315Z,3
2022-11-26T09:27:09.103Z,3
2022-11-26T09:32:59.627Z,3.2
2022-11-26T09:38:32.502Z,3.4
2022-11-26T09:43:41.142Z,3.3
2022-11-26T09:49:23.144Z,3.6
2022-11-26T09:54:43.513Z,4
2022-11-26T10:00:25.829Z,3.8
2022-11-26T10:06:00.250Z,4.3
2022-11-26T10:11:23.471Z,4.5
2022-11-26T10:17:13.701Z,4.8
2022-11-26T10:22:30.374Z,4.6
2022-11-26T10:27:57.372Z,5.1
2022-11-26T10:33:29.096Z,5.2
2022-11-26T10:39:18.953Z,5.4
2022-11-26T10:44:42.004Z,5.5
2022-11-26T10:50:39.947Z,5.9
2022-11-26T10:55:47.680Z,6.3
2022-11-26T11:01:13.787Z,6.8
2022-11-26T11:06:49.055Z,6.8
2022-11-26T11:12:28.524Z,7
2022-11-26T11:18:15.898Z,7.2
2022-11-26T11:24:00.505Z,7.3
2022-11-26T11:29:20.313Z,7.3
2022-11-26T11:34:31.788Z,7.4
2022-11-26T11:40:17.595Z,7.7
2022-11-26T11:45:46.348Z,7.8
2022-11-26T11:51:22.687Z,7.7
2022-11-26T11:56:58.535Z,7.8
2022-11-26T12:02:20.820Z,7.9
2022-11-26T12:08:01.584Z,8
2022-11-26T12:13:22.153Z,8.2
2022-11-26T12:19:18.203Z,8.3
2022-11-26T12:24:44.412Z,8.4
2022-11-26T12:30:19.184Z,8.3
2022-11-26T12:35:56.409Z,8.6
2022-11-26T12:41:15.333Z,8.7
2022-11-26T12:47:06.879Z,8.9
2022-11-26T12:52:34.024Z,8.9
2022-11-26T12:57:47.583Z,8.7
2022-11-26T13:03:22.574Z,8.7
2022-11-26T13:08:52.857Z,8.9
2022-11-26T13:14:50.660Z,9
2022-11-26T13:20:03.106Z,8.9
2022-11-26T13:25:45.950Z,8.6
2022-11-26T13:31:28.587Z,8.4
2022-11-26T13:36:42.283Z,8.3
2022-11-26T13:42:33.227Z,8.4
2022-11-26T13:48:07.541Z,8.8
2022-11-26T13:53:25.170Z,8.7
2022-11-26T13:59:06.671Z,8.5
2022-11-26T14:04:26.205Z,8.5
2022-11-26T14:10:09.215Z,8.6
2022-11-26T14:15:43.254Z,8.5
2022-11-26T14:21:29.128Z,8.4
2022-11-26T14:27:01.258Z,8.4
2022-11-26T14:32:22.105Z,8.3
2022-11-26T14:38:11.162Z,8.2
2022-11-26T14:43:38.184Z,7.9
2022-11-26T14:49:09.744Z,7.7
2022-11-26T14:54:46.253Z,7.6
2022-11-26T15:00:20.643Z,7.5
2022-11-26T15:05:45.812Z,7.3
2022-11-26T15:11:27.331Z,7.2
2022-11-26T15:16:54.167Z,7
2022-11-26T15:22:21.060Z,6.8
2022-11-26T15:28:08.217Z,6.7
2022-11-26T15:33:38.642Z,6.5
2022-11-26T15:38:59.560Z,6.3
2022-11-26T15:44:17.904Z,6
2022-11-26T15:50:03.460Z,5.8
2022-11-26T15:55:28.251Z,5.7
2022-11-26T16:00:58.879Z,5.6
2022-11-26T16:06:30.590Z,5.3
2022-11-26T16:12:05.244Z,5.1
2022-11-26T16:17:49.339Z,4.9
2022-11-26T16:23:16.675Z,4.7
2022-11-26T16:28:47.566Z,4.6
2022-11-26T16:34:13.682Z,4.9
2022-11-26T16:39:45.539Z,4.8
2022-11-26T16:45:30.835Z,4.9
2022-11-26T16:50:55.042Z,4.8
2022-11-26T16:56:13.212Z,4.6
2022-11-26T17:02:10.968Z,4.3
2022-11-26T17:07:29.379Z,4.2
2022-11-26T17:13:04.555Z,4.6
2022-11-26T17:18:34.980Z,5
2022-11-26T17:24:03.056Z,5
2022-11-26T17:29:47.875Z,4.8
2022-11-26T17:35:05.677Z,4.6
2022-11-26T17:40:50.281Z,4.9
2022-11-26T17:46:00.204Z,4.6
2022-11-26T17:51:56.851Z,4.7
2022-11-26T17:57:13.907Z,4.7
2022-11-26T18:02:41.315Z,4.8
2022-11-26T18:08:07.259Z,4.7
2022-11-26T18:13:55.312Z,4.4
2022-11-26T18:19:32.920Z,4.1
2022-11-26T18:25:04.177Z,3.8
2022-11-26T18:30:40.218Z,3.4
2022-11-26T18:36:05.342Z,3.2
2022-11-26T18:41:32.243Z,3.9
2022-11-26T18:47:09.166Z,4.1
2022-11-26T18:52:21.665Z,4
2022-11-26T18:58:10.010Z,4.4
2022-11-26T19:03:37.767Z,4.5
2022-11-26T19:08:55.249Z,4.5
2022-11-26T19:14:48.173Z,4.4
2022-11-26T19:19:59.620Z,4.4
2022-11-26T19:25:35.379Z,4.4
2022-11-26T19:31:21.930Z,4
2022-11-26T19:36:35.636Z,3.6
2022-11-26T19:42:12.133Z,3.7
2022-11-26T19:47:59.247Z,3.8
2022-11-26T19:53:31.886Z,4
2022-11-26T19:58:45.131Z,3.7
2022-11-26T20:04:36.122Z,3.3
2022-11-26T20:09:56.049Z,3.2
2022-11-26T20:15:42.062Z,3
2022-11-26T20:21:12.631Z,3
2022-11-26T20:26:26.785Z,2.8
2022-11-26T20:31:57.475Z,2.3
2022-11-26T20:37:24.091Z,2.3
2022-11-26T20:43:07.568Z,2.4
2022-11-26T20:48:44.119Z,2.7
2022-11-26T20:54:16.807Z,2.9
2022-11-26T20:59:54.401Z,2.9
2022-11-26T21:05:02.290Z,2.7
2022-11-26T21:10:30.392Z,2.4
2022-11-26T21:16:12.314Z,2.4
2022-11-26T21:21:58.052Z,2.5
2022-11-26T21:27:18.655Z,2.2
2022-11-26T21:33:07.603Z,2.2
2022-11-26T21:38:25.329Z,2.3
2022-11-26T21:44:02.403Z,2
2022-11-26T21:49:37.625Z,2.3
2022-11-26T21:55:10.725Z,2.3
2022-11-26T22:00:40.571Z,2.3
2022-11-26T22:06:06.108Z,1.6
2022-11-26T22:11:39.752Z,2
2022-11-26T22:16:51.444Z,2
2022-11-26T22:22:29.810Z,1.9
2022-11-26T22:28:14.818Z,1.8
2022-11-26T22:33:42.862Z,1.7
2022-11-26T22:39:11.278Z,1.6
2022-11-26T22:44:36.796Z,1.6
2022-11-26T22:50:16.308Z,1.5
2022-11-26T22:55:43.540Z,1.4
2022-11-26T23:01:19.472Z,1.4
2022-11-26T23:06:55.666Z,1.3
2022-11-26T23:12:28.064Z,1.4
2022-11-26T23:17:53.228Z,1.4
2022-11-26T23:23:20.128Z,1.2
2022-11-26T23:29:01.482Z,1.2
2022-11-26T23:34:31.550Z,1.2
2022-11-26T23:40:02.053Z,1.2
2022-11-26T23:45:39.855Z,1.4
2022-11-26T23:51:02.533Z,1.5
2022-11-26T23:56:32.606Z,1.5
